Time;durP1;ratioP1;P1;durP2;ratioP2;P2;SDS_P1;SDS_P2;PMS_P1;PMS_P2;Temp;Humidity;BMP_temperature;BMP_pressure;BME280_temperature;BME280_humidity;BME280_pressure;Samples;Min_cycle;Max_cycle;Signal;HPM_P1;HPM_P2
2022/02/17 07:01:26;;;;;;;133.32;16.55;;;;;;;;;;5399620;23;20092;-79
2022/02/17 07:03:52;;;;;;;136.88;14.70;;;;;;;;;;4911923;29;20104;-80
2022/02/17 07:06:19;;;;;;;135.88;15.02;;;;;;;;;;4910739;29;20048;-79
2022/02/17 07:08:46;;;;;;;131.75;15.35;;;;;;;;;;4910373;29;20049;-80
2022/02/17 07:11:12;;;;;;;126.80;16.23;;;;;;;;;;4912502;29;20123;-80
2022/02/17 07:13:39;;;;;;;139.93;15.93;;;;;;;;;;4910594;29;20112;-81
2022/02/17 07:16:08;;;;;;;;;;;;;;;;;;4910725;29;20532;-81
2022/02/17 07:18:36;;;;;;;134.02;14.20;;;;;;;;;;4910864;29;20435;-80
2022/02/17 07:21:05;;;;;;;137.02;16.40;;;;;;;;;;4912136;29;20052;-80
2022/02/17 07:23:31;;;;;;;124.85;15.57;;;;;;;;;;4909365;29;20512;-80
2022/02/17 07:25:58;;;;;;;132.63;15.23;;;;;;;;;;4914267;29;20064;-79
2022/02/17 07:28:26;;;;;;;129.13;15.88;;;;;;;;;;4910882;29;20178;-80
2022/02/17 07:30:54;;;;;;;143.70;17.92;;;;;;;;;;4910756;29;20127;-82
2022/02/17 07:33:20;;;;;;;134.02;17.25;;;;;;;;;;4908947;29;20103;-79
2022/02/17 07:35:47;;;;;;;133.13;15.55;;;;;;;;;;4909981;29;20049;-80
2022/02/17 07:38:34;;;;;;;140.77;15.35;;;;;;;;;;4894485;29;20135;-80
2022/02/17 07:41:01;;;;;;;126.65;13.93;;;;;;;;;;4911155;29;20675;-82
2022/02/17 07:43:28;;;;;;;123.85;14.32;;;;;;;;;;4909669;29;20048;-82
2022/02/17 07:45:54;;;;;;;134.77;15.85;;;;;;;;;;4909537;29;20052;-82
2022/02/17 07:48:21;;;;;;;128.80;15.13;;;;;;;;;;4909079;29;20630;-83
2022/02/17 07:50:47;;;;;;;128.57;14.38;;;;;;;;;;4910735;29;20056;-82
2022/02/17 07:53:14;;;;;;;136.88;15.45;;;;;;;;;;4910022;29;20044;-81
2022/02/17 07:55:41;;;;;;;127.78;16.35;;;;;;;;;;4911042;29;20473;-82
2022/02/17 07:58:14;;;;;;;117.40;14.80;;;;;;;;;;4908748;29;20516;-82
2022/02/17 08:00:41;;;;;;;118.57;15.93;;;;;;;;;;4904713;29;20053;-82
2022/02/17 08:03:10;;;;;;;138.70;16.10;;;;;;;;;;4891948;29;20052;-82
2022/02/17 08:05:38;;;;;;;112.88;14.27;;;;;;;;;;4890677;29;20067;-83
2022/02/17 08:08:06;;;;;;;116.13;14.90;;;;;;;;;;4892192;29;20171;-83
2022/02/17 08:10:34;;;;;;;121.55;15.15;;;;;;;;;;4876968;29;20072;-84
2022/02/17 08:13:03;;;;;;;110.70;15.40;;;;;;;;;;4889071;29;20100;-83
2022/02/17 08:15:32;;;;;;;99.18;14.75;;;;;;;;;;4889016;29;20070;-83
2022/02/17 08:17:59;;;;;;;115.78;16.25;;;;;;;;;;4889464;29;20457;-83
2022/02/17 08:20:26;;;;;;;115.55;16.23;;;;;;;;;;4888991;29;20064;-83
2022/02/17 08:22:55;;;;;;;109.25;14.65;;;;;;;;;;4889827;29;20517;-83
2022/02/17 08:25:22;;;;;;;119.40;15.05;;;;;;;;;;4890826;29;20045;-83
2022/02/17 08:27:50;;;;;;;119.15;15.70;;;;;;;;;;4892921;29;20087;-83
2022/02/17 08:30:17;;;;;;;119.90;15.30;;;;;;;;;;4888532;29;20048;-84
2022/02/17 08:32:45;;;;;;;123.13;16.80;;;;;;;;;;4893173;29;20285;-83
2022/02/17 08:35:13;;;;;;;130.30;16.52;;;;;;;;;;4875841;29;20072;-83
2022/02/17 08:37:41;;;;;;;128.20;16.60;;;;;;;;;;4875822;29;20421;-83
2022/02/17 08:40:09;;;;;;;110.63;15.05;;;;;;;;;;4891924;29;20320;-83
2022/02/17 08:42:36;;;;;;;140.98;16.60;;;;;;;;;;4892564;29;20113;-84
2022/02/17 08:45:03;;;;;;;123.68;16.45;;;;;;;;;;4892756;29;20076;-83
2022/02/17 08:47:30;;;;;;;136.30;15.80;;;;;;;;;;4890857;29;20455;-83
2022/02/17 08:49:57;;;;;;;124.18;17.30;;;;;;;;;;4892858;29;20074;-83
2022/02/17 08:52:26;;;;;;;108.25;14.40;;;;;;;;;;4892476;29;20050;-84
2022/02/17 08:54:53;;;;;;;119.88;17.23;;;;;;;;;;4892303;29;20056;-84
2022/02/17 08:57:19;;;;;;;120.70;15.82;;;;;;;;;;4891314;29;20041;-84
2022/02/17 08:59:46;;;;;;;122.10;15.10;;;;;;;;;;4873215;29;20639;-84
2022/02/17 09:02:13;;;;;;;122.03;17.17;;;;;;;;;;4894765;29;20136;-84
2022/02/17 09:04:40;;;;;;;113.78;14.23;;;;;;;;;;4905847;29;20048;-83
2022/02/17 09:07:07;;;;;;;123.15;14.60;;;;;;;;;;4902154;29;20449;-84
2022/02/17 09:09:34;;;;;;;111.47;14.98;;;;;;;;;;4881231;29;20063;-84
2022/02/17 09:12:00;;;;;;;122.95;15.45;;;;;;;;;;4897541;29;20987;-84
2022/02/17 09:14:27;;;;;;;128.27;16.27;;;;;;;;;;4895215;29;20060;-84
2022/02/17 09:16:54;;;;;;;132.18;16.10;;;;;;;;;;4905806;29;20052;-84
2022/02/17 09:19:21;;;;;;;130.40;17.08;;;;;;;;;;4892009;29;20102;-83
2022/02/17 09:21:48;;;;;;;116.22;14.70;;;;;;;;;;4893361;29;20112;-84
2022/02/17 09:24:14;;;;;;;96.93;13.48;;;;;;;;;;4891314;29;20088;-83
2022/02/17 09:26:45;;;;;;;106.57;15.50;;;;;;;;;;4869857;29;20048;-83
2022/02/17 09:29:11;;;;;;;111.07;13.75;;;;;;;;;;4892198;29;20056;-84
2022/02/17 09:31:56;;;;;;;107.47;13.85;;;;;;;;;;4895175;29;20052;-84
2022/02/17 09:34:23;;;;;;;120.15;14.40;;;;;;;;;;4901165;29;20123;-84
2022/02/17 09:36:50;;;;;;;96.38;13.48;;;;;;;;;;4904083;29;20067;-84
2022/02/17 09:39:16;;;;;;;112.35;14.77;;;;;;;;;;4902379;29;20068;-84
2022/02/17 09:41:43;;;;;;;108.68;12.68;;;;;;;;;;4898230;29;20526;-84
2022/02/17 09:44:11;;;;;;;94.07;12.98;;;;;;;;;;4896885;29;20104;-84
2022/02/17 09:46:41;;;;;;;111.00;13.02;;;;;;;;;;4895725;29;20199;-84
2022/02/17 09:49:08;;;;;;;96.65;13.23;;;;;;;;;;4905930;29;20055;-86
2022/02/17 09:51:38;;;;;;;120.00;15.52;;;;;;;;;;4902662;29;20059;-84
2022/02/17 09:54:05;;;;;;;115.30;15.25;;;;;;;;;;4901282;29;20048;-83
2022/02/17 09:56:32;;;;;;;102.18;14.00;;;;;;;;;;4907356;29;20115;-84
2022/02/17 09:58:58;;;;;;;110.60;14.85;;;;;;;;;;4895000;29;20192;-86
2022/02/17 10:01:27;;;;;;;108.05;14.55;;;;;;;;;;4892679;29;20067;-84
2022/02/17 10:04:27;;;;;;;104.18;15.25;;;;;;;;;;4891739;29;20078;-85
2022/02/17 10:06:56;;;;;;;117.70;14.15;;;;;;;;;;4873282;29;20057;-84
2022/02/17 10:09:34;;;;;;;101.87;14.73;;;;;;;;;;4891579;29;20072;-84
2022/02/17 10:12:00;;;;;;;112.38;15.85;;;;;;;;;;4884799;29;20758;-84
2022/02/17 10:14:27;;;;;;;109.85;14.55;;;;;;;;;;4890712;29;20116;-83
2022/02/17 10:17:10;;;;;;;100.90;13.80;;;;;;;;;;4874878;29;20184;-84
2022/02/17 10:19:41;;;;;;;97.55;14.02;;;;;;;;;;4891685;29;20045;-84
2022/02/17 10:22:15;;;;;;;107.90;15.30;;;;;;;;;;4889920;29;20080;-84
2022/02/17 10:24:48;;;;;;;101.65;15.30;;;;;;;;;;4898172;29;20124;-83
2022/02/17 10:27:17;;;;;;;104.15;13.82;;;;;;;;;;4890686;29;20841;-83
2022/02/17 10:30:07;;;;;;;108.43;13.88;;;;;;;;;;4890965;29;20052;-83
2022/02/17 10:32:35;;;;;;;87.63;12.85;;;;;;;;;;4890468;29;20131;-83
2022/02/17 10:35:15;;;;;;;98.68;13.48;;;;;;;;;;4905863;29;20075;-83
2022/02/17 10:37:49;;;;;;;81.80;12.32;;;;;;;;;;4901762;29;20183;-82
2022/02/17 10:40:17;;;;;;;95.38;13.63;;;;;;;;;;4891091;29;20048;-82
2022/02/17 10:43:00;;;;;;;81.40;12.30;;;;;;;;;;4892984;29;20096;-82
2022/02/17 10:45:40;;;;;;;103.97;12.57;;;;;;;;;;4875062;29;20059;-82
2022/02/17 10:48:34;;;;;;;83.28;12.20;;;;;;;;;;4889373;29;20044;-82
2022/02/17 10:51:10;;;;;;;109.32;15.90;;;;;;;;;;4887608;29;20048;-82
2022/02/17 10:53:56;;;;;;;86.88;11.57;;;;;;;;;;4890511;29;20060;-82
2022/02/17 10:56:24;;;;;;;93.75;12.95;;;;;;;;;;4889961;29;20053;-82
2022/02/17 10:58:51;;;;;;;88.00;12.63;;;;;;;;;;4891358;29;20120;-82
2022/02/17 11:01:20;;;;;;;79.97;12.10;;;;;;;;;;4898694;29;20060;-82
2022/02/17 11:03:48;;;;;;;84.22;12.35;;;;;;;;;;4897485;29;20064;-83
2022/02/17 11:06:16;;;;;;;105.57;13.35;;;;;;;;;;4898870;29;20131;-81
2022/02/17 11:08:47;;;;;;;89.35;11.88;;;;;;;;;;4890381;29;20129;-83
2022/02/17 11:11:17;;;;;;;93.10;14.52;;;;;;;;;;4890717;29;20052;-83
2022/02/17 11:13:47;;;;;;;;;;;;;;;;;;4890451;29;20104;-84
2022/02/17 11:16:20;;;;;;;90.72;12.88;;;;;;;;;;4890037;29;20376;-84
2022/02/17 11:18:48;;;;;;;89.82;13.18;;;;;;;;;;4899024;29;20052;-84
2022/02/17 11:21:16;;;;;;;86.32;12.85;;;;;;;;;;4900728;29;20040;-83
2022/02/17 11:23:43;;;;;;;87.18;11.10;;;;;;;;;;4891569;29;20116;-85
2022/02/17 11:26:19;;;;;;;106.17;13.30;;;;;;;;;;4890159;29;20573;-84
2022/02/17 11:28:46;;;;;;;101.18;14.15;;;;;;;;;;4903837;29;20048;-84
2022/02/17 11:31:12;;;;;;;108.07;13.98;;;;;;;;;;4891591;29;20053;-84
2022/02/17 11:33:41;;;;;;;96.72;13.68;;;;;;;;;;4890466;29;20057;-85
2022/02/17 11:36:08;;;;;;;88.85;13.10;;;;;;;;;;4890657;29;20609;-84
2022/02/17 11:38:37;;;;;;;99.32;15.15;;;;;;;;;;4895372;29;20132;-84
2022/02/17 11:41:30;;;;;;;102.57;15.07;;;;;;;;;;4889369;29;20534;-83
2022/02/17 11:44:13;;;;;;;84.47;12.57;;;;;;;;;;4891805;29;20095;-83
2022/02/17 11:46:40;;;;;;;86.03;11.88;;;;;;;;;;4902958;29;20134;-83
2022/02/17 11:49:31;;;;;;;96.10;14.15;;;;;;;;;;4891295;29;20432;-84
2022/02/17 11:52:21;;;;;;;97.25;12.52;;;;;;;;;;4886397;29;20083;-84
2022/02/17 11:55:20;;;;;;;109.53;12.60;;;;;;;;;;4895098;29;20048;-84
2022/02/17 11:57:47;;;;;;;96.28;13.30;;;;;;;;;;4885679;29;20060;-83
2022/02/17 12:00:20;;;;;;;102.40;13.48;;;;;;;;;;4891170;29;20203;-84
2022/02/17 12:02:46;;;;;;;104.82;13.65;;;;;;;;;;4906383;29;20128;-84
2022/02/17 12:05:17;;;;;;;101.88;14.27;;;;;;;;;;4876738;29;20119;-83
2022/02/17 12:07:44;;;;;;;94.30;13.43;;;;;;;;;;4894933;29;20056;-84
2022/02/17 12:10:31;;;;;;;103.93;12.95;;;;;;;;;;4878437;29;20060;-83
2022/02/17 12:13:01;;;;;;;92.38;12.90;;;;;;;;;;4900784;29;20048;-84
2022/02/17 12:15:28;;;;;;;86.82;11.95;;;;;;;;;;4900630;29;20060;-83
2022/02/17 12:17:56;;;;;;;92.55;13.15;;;;;;;;;;4894559;29;20879;-83
2022/02/17 12:20:25;;;;;;;95.40;12.65;;;;;;;;;;4893054;29;20407;-82
2022/02/17 12:23:02;;;;;;;89.85;11.00;;;;;;;;;;4904653;29;20056;-82
2022/02/17 12:25:40;;;;;;;91.20;12.27;;;;;;;;;;4893595;29;20064;-82
2022/02/17 12:28:09;;;;;;;88.22;13.27;;;;;;;;;;4892145;29;20048;-83
2022/02/17 12:30:48;;;;;;;99.28;13.85;;;;;;;;;;4896731;29;20063;-83
2022/02/17 12:33:15;;;;;;;106.32;14.05;;;;;;;;;;4901800;29;20440;-81
2022/02/17 12:35:57;;;;;;;86.38;11.57;;;;;;;;;;4895016;29;20076;-84
2022/02/17 12:38:32;;;;;;;83.05;11.70;;;;;;;;;;4894665;29;23935;-83
2022/02/17 12:41:20;;;;;;;82.78;12.13;;;;;;;;;;4911210;29;20071;-82
2022/02/17 12:43:46;;;;;;;96.80;13.32;;;;;;;;;;4876076;29;20111;-82
2022/02/17 12:46:16;;;;;;;82.43;11.32;;;;;;;;;;4901375;29;20054;-83
2022/02/17 12:48:43;;;;;;;73.10;10.40;;;;;;;;;;4899002;29;20048;-83
2022/02/17 12:51:28;;;;;;;73.22;11.15;;;;;;;;;;4893250;29;20139;-83
2022/02/17 12:54:04;;;;;;;83.72;12.18;;;;;;;;;;4893341;29;20048;-84
2022/02/17 12:56:33;;;;;;;76.78;11.02;;;;;;;;;;4892551;29;20053;-83
2022/02/17 12:59:07;;;;;;;97.07;11.68;;;;;;;;;;4892631;29;20181;-82
2022/02/17 13:01:37;;;;;;;77.93;12.20;;;;;;;;;;4902220;29;20131;-82
2022/02/17 13:04:04;;;;;;;82.15;11.82;;;;;;;;;;4895998;29;20060;-84
2022/02/17 13:06:31;;;;;;;70.03;11.38;;;;;;;;;;4900146;29;20103;-83
2022/02/17 13:08:59;;;;;;;80.85;10.80;;;;;;;;;;4887392;29;20053;-84
2022/02/17 13:11:29;;;;;;;78.10;11.55;;;;;;;;;;4891255;29;20065;-87
2022/02/17 13:14:06;;;;;;;79.05;11.82;;;;;;;;;;4898955;29;20056;-82
2022/02/17 13:16:36;;;;;;;78.20;11.60;;;;;;;;;;4893054;29;20075;-83
2022/02/17 13:19:05;;;;;;;68.53;9.45;;;;;;;;;;4893194;29;20060;-81
2022/02/17 13:21:34;;;;;;;86.20;12.25;;;;;;;;;;4893384;29;20048;-82
2022/02/17 13:24:11;;;;;;;86.00;11.23;;;;;;;;;;4893426;29;20056;-82
2022/02/17 13:26:39;;;;;;;57.80;8.68;;;;;;;;;;4864591;29;20044;-83
2022/02/17 13:29:08;;;;;;;51.47;7.07;;;;;;;;;;4894808;29;20051;-83
2022/02/17 13:31:39;;;;;;;59.97;7.85;;;;;;;;;;4894832;29;20048;-84
2022/02/17 13:34:17;;;;;;;54.47;8.20;;;;;;;;;;4892503;29;20049;-82
2022/02/17 13:36:44;;;;;;;55.85;8.20;;;;;;;;;;4894002;29;20044;-83
2022/02/17 13:39:19;;;;;;;55.83;8.32;;;;;;;;;;4892638;29;20127;-85
2022/02/17 13:42:04;;;;;;;55.83;7.97;;;;;;;;;;4893143;29;20052;-84
2022/02/17 13:44:42;;;;;;;43.85;7.38;;;;;;;;;;4879617;29;20113;-84
2022/02/17 13:47:12;;;;;;;47.75;7.53;;;;;;;;;;4893063;29;20115;-84
2022/02/17 13:49:41;;;;;;;57.55;8.82;;;;;;;;;;4893473;29;20620;-84
2022/02/17 13:52:22;;;;;;;57.45;9.30;;;;;;;;;;4893308;29;20049;-84
2022/02/17 13:54:51;;;;;;;67.75;10.50;;;;;;;;;;4894531;29;20112;-83
2022/02/17 13:57:21;;;;;;;;;;;;;;;;;;4892828;29;20048;-83
2022/02/17 13:59:49;;;;;;;81.53;10.63;;;;;;;;;;4877257;29;19928;-82
2022/02/17 14:02:30;;;;;;;89.47;11.55;;;;;;;;;;4887917;29;20049;-82
2022/02/17 14:04:59;;;;;;;81.57;12.70;;;;;;;;;;4895471;29;20518;-83
2022/02/17 14:07:27;;;;;;;84.78;13.35;;;;;;;;;;4892193;29;20052;-83
2022/02/17 14:09:53;;;;;;;89.45;12.80;;;;;;;;;;4891537;29;20048;-83
2022/02/17 14:12:40;;;;;;;74.90;10.10;;;;;;;;;;4880289;29;20429;-84
2022/02/17 14:15:07;;;;;;;82.78;12.20;;;;;;;;;;4893330;29;20163;-81
2022/02/17 14:17:34;;;;;;;75.28;11.10;;;;;;;;;;4892467;29;20044;-82
2022/02/17 14:20:02;;;;;;;81.00;12.68;;;;;;;;;;4895901;29;20056;-83
2022/02/17 14:22:29;;;;;;;83.47;11.30;;;;;;;;;;4890651;29;20060;-82
2022/02/17 14:24:55;;;;;;;75.90;11.70;;;;;;;;;;4877828;29;20426;-83
2022/02/17 14:27:23;;;;;;;67.47;10.30;;;;;;;;;;4891438;29;20040;-83
2022/02/17 14:29:50;;;;;;;82.90;10.73;;;;;;;;;;4893196;29;20045;-83
2022/02/17 14:32:16;;;;;;;77.78;11.30;;;;;;;;;;4892670;29;20406;-83
2022/02/17 14:37:30;;;;;;;70.95;10.95;;;;;;;;;;4893990;29;20060;-83
2022/02/17 14:39:57;;;;;;;72.70;11.48;;;;;;;;;;4891692;29;20048;-83
2022/02/17 14:42:24;;;;;;;77.72;11.25;;;;;;;;;;4891966;29;20063;-83
2022/02/17 14:44:50;;;;;;;81.28;11.10;;;;;;;;;;4891150;29;20509;-84
2022/02/17 14:47:17;;;;;;;91.57;12.20;;;;;;;;;;4893369;29;20573;-82
2022/02/17 14:49:49;;;;;;;80.65;12.82;;;;;;;;;;4894381;29;20073;-83
2022/02/17 14:52:17;;;;;;;82.18;11.45;;;;;;;;;;4891708;29;20135;-84
2022/02/17 14:54:44;;;;;;;90.07;12.10;;;;;;;;;;4891526;29;20085;-84
2022/02/17 14:57:11;;;;;;;79.28;11.00;;;;;;;;;;4885576;29;20095;-84
2022/02/17 14:59:38;;;;;;;88.28;12.00;;;;;;;;;;4890953;29;20056;-84
2022/02/17 15:02:05;;;;;;;94.65;12.65;;;;;;;;;;4902309;29;20056;-83
2022/02/17 15:04:31;;;;;;;86.90;12.45;;;;;;;;;;4895583;29;20135;-85
2022/02/17 15:06:58;;;;;;;91.20;12.20;;;;;;;;;;4897530;29;20048;-83
2022/02/17 15:09:25;;;;;;;83.82;12.00;;;;;;;;;;4882544;29;20056;-84
2022/02/17 15:11:51;;;;;;;92.95;12.88;;;;;;;;;;4896397;29;20104;-84
2022/02/17 15:14:18;;;;;;;88.22;12.98;;;;;;;;;;4890967;29;20052;-83
2022/02/17 15:16:45;;;;;;;98.10;12.57;;;;;;;;;;4904038;29;20146;-84
2022/02/17 15:19:12;;;;;;;100.18;11.98;;;;;;;;;;4897535;29;20509;-82
2022/02/17 15:21:39;;;;;;;104.57;12.80;;;;;;;;;;4895464;29;20056;-82
2022/02/17 15:24:06;;;;;;;87.68;11.95;;;;;;;;;;4889463;29;20045;-83
2022/02/17 15:26:32;;;;;;;101.18;13.40;;;;;;;;;;4890645;29;20077;-82
2022/02/17 15:29:05;;;;;;;97.57;12.70;;;;;;;;;;4890243;29;20529;-82
2022/02/17 15:31:32;;;;;;;92.35;11.27;;;;;;;;;;4874267;29;20131;-84
2022/02/17 15:33:58;;;;;;;98.28;12.77;;;;;;;;;;4896904;29;20107;-84
2022/02/17 15:36:25;;;;;;;95.85;13.63;;;;;;;;;;4880906;29;20044;-83
2022/02/17 15:38:52;;;;;;;95.78;12.48;;;;;;;;;;4894086;29;20052;-83
2022/02/17 15:41:19;;;;;;;90.93;12.98;;;;;;;;;;4893238;29;20052;-82
2022/02/17 15:43:46;;;;;;;83.28;12.15;;;;;;;;;;4907261;29;20051;-83
2022/02/17 15:46:13;;;;;;;102.40;13.15;;;;;;;;;;4895792;29;20052;-82
2022/02/17 15:48:40;;;;;;;94.10;11.90;;;;;;;;;;4888313;29;20052;-82
2022/02/17 15:51:07;;;;;;;84.72;11.23;;;;;;;;;;4903325;29;20797;-81
2022/02/17 15:53:34;;;;;;;88.80;12.65;;;;;;;;;;4894014;29;20052;-82
2022/02/17 15:56:01;;;;;;;87.35;12.32;;;;;;;;;;4877699;29;20449;-85
2022/02/17 15:58:27;;;;;;;96.25;14.30;;;;;;;;;;4903008;29;20131;-82
2022/02/17 16:00:54;;;;;;;96.65;13.50;;;;;;;;;;4901918;29;20060;-82
2022/02/17 16:03:21;;;;;;;96.40;13.95;;;;;;;;;;4900962;29;20090;-82
2022/02/17 16:05:48;;;;;;;99.03;12.75;;;;;;;;;;4893241;29;20104;-82
2022/02/17 16:08:15;;;;;;;97.72;13.25;;;;;;;;;;4876054;29;20136;-81
2022/02/17 16:10:41;;;;;;;91.18;13.35;;;;;;;;;;4879468;29;20087;-81
2022/02/17 16:13:10;;;;;;;91.45;12.00;;;;;;;;;;4892701;29;20096;-81
2022/02/17 16:15:38;;;;;;;86.57;12.57;;;;;;;;;;4896697;29;20056;-82
2022/02/17 16:18:05;;;;;;;94.95;12.00;;;;;;;;;;4902778;29;20135;-81
2022/02/17 16:20:31;;;;;;;82.60;12.23;;;;;;;;;;4893237;29;20532;-82
2022/02/17 16:22:58;;;;;;;90.63;11.75;;;;;;;;;;4876783;29;20080;-81
2022/02/17 16:25:24;;;;;;;91.20;12.32;;;;;;;;;;4901754;29;21893;-82
2022/02/17 16:27:51;;;;;;;101.57;12.55;;;;;;;;;;4897454;29;20056;-81
2022/02/17 16:30:17;;;;;;;93.60;12.18;;;;;;;;;;4877511;29;20052;-82
2022/02/17 16:32:46;;;;;;;85.78;12.20;;;;;;;;;;4878029;29;20048;-81
2022/02/17 16:35:16;;;;;;;86.68;11.35;;;;;;;;;;4906357;29;20131;-83
2022/02/17 16:37:44;;;;;;;100.20;14.55;;;;;;;;;;4878089;29;20052;-83
2022/02/17 16:40:18;;;;;;;91.28;12.48;;;;;;;;;;4878430;29;20083;-83
2022/02/17 16:42:44;;;;;;;94.72;16.45;;;;;;;;;;4874045;29;20096;-84
2022/02/17 16:45:14;;;;;;;88.32;12.25;;;;;;;;;;4878122;29;20068;-83
2022/02/17 16:47:47;;;;;;;85.13;11.15;;;;;;;;;;4892110;29;20056;-83
2022/02/17 16:50:14;;;;;;;95.22;12.95;;;;;;;;;;4891150;29;21329;-83
2022/02/17 16:52:42;;;;;;;77.15;11.07;;;;;;;;;;4899584;29;20056;-85
2022/02/17 16:55:09;;;;;;;87.15;12.27;;;;;;;;;;4878049;29;20520;-83
2022/02/17 16:57:36;;;;;;;85.55;11.57;;;;;;;;;;4876999;29;20052;-83
2022/02/17 17:00:05;;;;;;;90.70;12.10;;;;;;;;;;4892604;29;20048;-83
2022/02/17 17:02:33;;;;;;;;;;;;;;;;;;4892970;29;20072;-84
2022/02/17 17:05:01;;;;;;;96.53;12.43;;;;;;;;;;4890967;29;19931;-83
2022/02/17 17:07:30;;;;;;;83.82;11.38;;;;;;;;;;4890019;29;20052;-83
2022/02/17 17:09:58;;;;;;;101.70;14.02;;;;;;;;;;4890966;29;20063;-83
2022/02/17 17:12:25;;;;;;;105.45;16.42;;;;;;;;;;4891220;29;20048;-84
2022/02/17 17:14:53;;;;;;;100.80;14.02;;;;;;;;;;4891692;29;20409;-83
2022/02/17 17:17:20;;;;;;;105.13;16.83;;;;;;;;;;4892445;29;20048;-83
2022/02/17 17:19:47;;;;;;;118.15;22.67;;;;;;;;;;4873861;29;20593;-83
2022/02/17 17:22:14;;;;;;;106.97;21.52;;;;;;;;;;4890398;29;20056;-83
2022/02/17 17:24:41;;;;;;;101.20;15.48;;;;;;;;;;4891300;29;20052;-84
2022/02/17 17:27:08;;;;;;;107.72;19.48;;;;;;;;;;4891296;29;20076;-82
2022/02/17 17:29:36;;;;;;;96.13;14.50;;;;;;;;;;4891114;29;20528;-81
2022/02/17 17:32:03;;;;;;;114.50;18.30;;;;;;;;;;4892873;29;20063;-84
2022/02/17 17:34:30;;;;;;;104.57;15.18;;;;;;;;;;4875027;29;20044;-82
2022/02/17 17:36:57;;;;;;;91.15;14.80;;;;;;;;;;4891393;29;20108;-82
2022/02/17 17:39:28;;;;;;;102.15;16.75;;;;;;;;;;4893425;29;20053;-81
2022/02/17 17:41:55;;;;;;;97.65;14.38;;;;;;;;;;4891010;29;20048;-82
2022/02/17 17:44:22;;;;;;;92.80;13.18;;;;;;;;;;4893756;29;20116;-81
2022/02/17 17:46:50;;;;;;;84.88;13.40;;;;;;;;;;4892222;29;20048;-83
2022/02/17 17:49:19;;;;;;;100.18;13.63;;;;;;;;;;4891037;29;20518;-85
2022/02/17 17:51:46;;;;;;;;;;;;;;;;;;4891194;29;20130;-81
2022/02/17 17:54:13;;;;;;;128.90;23.58;;;;;;;;;;4890805;29;20022;-82
2022/02/17 17:56:39;;;;;;;111.20;19.75;;;;;;;;;;4891210;29;20398;-81
2022/02/17 17:59:07;;;;;;;97.18;15.90;;;;;;;;;;4889856;29;20573;-81
2022/02/17 18:01:33;;;;;;;91.90;12.38;;;;;;;;;;4901651;29;20052;-81
2022/02/17 18:04:00;;;;;;;95.50;12.13;;;;;;;;;;4894879;29;20126;-81
2022/02/17 18:06:26;;;;;;;106.85;14.20;;;;;;;;;;4892593;29;20604;-82
2022/02/17 18:08:53;;;;;;;102.32;15.50;;;;;;;;;;4891925;29;20063;-82
2022/02/17 18:11:19;;;;;;;107.50;14.40;;;;;;;;;;4897620;29;20104;-82
2022/02/17 18:13:49;;;;;;;91.05;13.68;;;;;;;;;;4893925;29;20909;-82
2022/02/17 18:16:16;;;;;;;90.85;14.65;;;;;;;;;;4877473;29;20589;-82
2022/02/17 18:18:43;;;;;;;95.60;14.45;;;;;;;;;;4890595;29;20049;-81
2022/02/17 18:21:10;;;;;;;92.70;13.38;;;;;;;;;;4890509;29;21020;-82
2022/02/17 18:23:37;;;;;;;96.93;15.05;;;;;;;;;;4902161;29;20482;-82
2022/02/17 18:26:04;;;;;;;82.25;12.30;;;;;;;;;;4897988;29;20478;-83
2022/02/17 18:28:31;;;;;;;101.97;12.15;;;;;;;;;;4899632;29;20475;-84
2022/02/17 18:30:57;;;;;;;78.57;9.82;;;;;;;;;;4895077;29;20049;-83
2022/02/17 18:33:24;;;;;;;89.53;13.20;;;;;;;;;;4891845;29;20052;-83
2022/02/17 18:35:50;;;;;;;81.25;11.95;;;;;;;;;;4904809;29;20048;-84
2022/02/17 18:38:17;;;;;;;75.88;10.82;;;;;;;;;;4903859;29;20076;-83
2022/02/17 18:40:44;;;;;;;79.05;10.70;;;;;;;;;;4897285;29;20045;-84
2022/02/17 18:43:12;;;;;;;74.82;10.65;;;;;;;;;;4900581;29;20108;-82
2022/02/17 18:45:41;;;;;;;71.22;9.15;;;;;;;;;;4890341;29;20521;-83
2022/02/17 18:48:11;;;;;;;75.10;10.90;;;;;;;;;;4889673;29;20105;-82
2022/02/17 18:50:38;;;;;;;66.90;9.20;;;;;;;;;;4890326;29;20057;-83
2022/02/17 18:53:06;;;;;;;67.75;8.50;;;;;;;;;;4896545;29;20100;-81
2022/02/17 18:55:35;;;;;;;58.72;8.65;;;;;;;;;;4892665;29;20045;-81
2022/02/17 18:58:03;;;;;;;;;;;;;;;;;;4896625;29;20068;-84
2022/02/17 19:00:37;;;;;;;53.20;7.57;;;;;;;;;;4900246;29;19982;-82
2022/02/17 19:03:04;;;;;;;57.13;7.30;;;;;;;;;;4893067;29;20600;-83
2022/02/17 19:05:51;;;;;;;57.30;7.93;;;;;;;;;;4890225;29;20501;-82
2022/02/17 19:08:18;;;;;;;49.47;7.03;;;;;;;;;;4872585;29;20053;-82
2022/02/17 19:10:53;;;;;;;64.75;8.48;;;;;;;;;;4875402;29;20064;-82
2022/02/17 19:13:21;;;;;;;46.95;7.10;;;;;;;;;;4891396;29;20068;-83
2022/02/17 19:15:48;;;;;;;64.28;7.28;;;;;;;;;;4889827;29;20053;-81
2022/02/17 19:18:16;;;;;;;57.85;6.78;;;;;;;;;;4886323;29;20048;-83
2022/02/17 19:20:43;;;;;;;41.90;6.03;;;;;;;;;;4890776;29;20448;-82
2022/02/17 19:23:10;;;;;;;29.33;5.50;;;;;;;;;;4890244;29;20052;-85
2022/02/17 19:25:37;;;;;;;32.72;4.57;;;;;;;;;;4898657;29;20048;-84
2022/02/17 19:28:04;;;;;;;36.63;4.72;;;;;;;;;;4893766;29;20049;-82
2022/02/17 19:30:31;;;;;;;31.52;4.38;;;;;;;;;;4893244;29;20055;-84
2022/02/17 19:32:58;;;;;;;33.58;4.80;;;;;;;;;;4874496;29;20109;-84
2022/02/17 19:35:30;;;;;;;35.40;4.78;;;;;;;;;;4891501;29;20048;-84
2022/02/17 19:37:59;;;;;;;32.50;4.32;;;;;;;;;;4890406;29;20108;-83
2022/02/17 19:40:28;;;;;;;40.08;5.85;;;;;;;;;;4890553;29;20052;-84
2022/02/17 19:42:55;;;;;;;23.83;4.80;;;;;;;;;;4890195;29;20056;-85
2022/02/17 19:45:22;;;;;;;35.33;4.75;;;;;;;;;;4899682;29;20203;-85
2022/02/17 19:47:49;;;;;;;30.10;4.43;;;;;;;;;;4883073;29;20052;-83
2022/02/17 19:50:16;;;;;;;33.00;5.13;;;;;;;;;;4873638;29;20108;-83
2022/02/17 19:52:43;;;;;;;19.65;3.90;;;;;;;;;;4908653;29;20052;-84
2022/02/17 19:55:10;;;;;;;22.17;3.83;;;;;;;;;;4891642;29;20470;-85
2022/02/17 19:57:38;;;;;;;22.58;3.40;;;;;;;;;;4900283;29;20495;-82
2022/02/17 20:00:08;;;;;;;26.55;4.28;;;;;;;;;;4896843;29;20076;-85
2022/02/17 20:02:38;;;;;;;19.80;4.22;;;;;;;;;;4868270;29;20104;-84
2022/02/17 20:05:05;;;;;;;13.27;3.45;;;;;;;;;;4870400;29;20588;-83
2022/02/17 20:07:33;;;;;;;14.20;3.10;;;;;;;;;;4889796;29;20113;-84
2022/02/17 20:10:00;;;;;;;17.27;3.22;;;;;;;;;;4886564;29;20100;-82
2022/02/17 20:12:26;;;;;;;15.43;2.97;;;;;;;;;;4888175;29;20048;-84
2022/02/17 20:14:56;;;;;;;11.70;2.53;;;;;;;;;;4890046;29;20421;-83
2022/02/17 20:17:24;;;;;;;15.95;2.47;;;;;;;;;;4887955;29;20565;-82
2022/02/17 20:19:51;;;;;;;12.40;2.90;;;;;;;;;;4888919;29;20060;-82
2022/02/17 20:22:17;;;;;;;15.98;3.17;;;;;;;;;;4890782;29;20052;-82
2022/02/17 20:24:44;;;;;;;33.78;3.33;;;;;;;;;;4892473;29;20096;-83
2022/02/17 20:27:11;;;;;;;29.63;3.33;;;;;;;;;;4891884;29;20072;-78
2022/02/17 20:29:37;;;;;;;31.88;3.53;;;;;;;;;;4895362;29;20072;-86
2022/02/17 20:32:04;;;;;;;16.27;3.00;;;;;;;;;;4893029;29;20063;-86
2022/02/17 20:34:32;;;;;;;35.17;2.60;;;;;;;;;;4891945;29;20127;-86
2022/02/17 20:36:59;;;;;;;34.53;3.22;;;;;;;;;;4893750;29;20525;-84
2022/02/17 20:39:26;;;;;;;19.13;3.22;;;;;;;;;;4892683;29;20049;-87
2022/02/17 20:41:53;;;;;;;25.20;3.22;;;;;;;;;;4877885;29;20056;-84
2022/02/17 20:52:35;;;;;;;65.85;5.90;;;;;;;;;;4892354;29;21001;-86
2022/02/17 20:55:02;;;;;;;83.75;6.78;;;;;;;;;;4875874;29;20059;-84
2022/02/17 20:57:29;;;;;;;242.75;13.13;;;;;;;;;;4891642;29;20155;-83
2022/02/17 20:59:56;;;;;;;103.00;9.70;;;;;;;;;;4892592;29;20096;-83
2022/02/17 21:02:25;;;;;;;107.57;18.75;;;;;;;;;;4905867;29;20465;-84
2022/02/17 21:04:52;;;;;;;97.80;21.38;;;;;;;;;;4878090;29;20080;-86
2022/02/17 21:07:21;;;;;;;80.65;16.35;;;;;;;;;;4892680;29;20048;-87
2022/02/17 21:09:54;;;;;;;66.38;13.95;;;;;;;;;;4873993;29;20088;-85
2022/02/17 21:15:08;;;;;;;84.70;13.00;;;;;;;;;;4888553;29;20044;-86
2022/02/17 21:17:36;;;;;;;93.13;17.52;;;;;;;;;;4893351;29;20060;-86
2022/02/17 21:20:04;;;;;;;91.57;17.40;;;;;;;;;;4876486;29;20080;-84
2022/02/17 21:22:31;;;;;;;91.82;14.75;;;;;;;;;;4902190;29;20056;-85
2022/02/17 21:24:59;;;;;;;105.50;13.95;;;;;;;;;;4880593;29;20506;-85
2022/02/17 21:27:26;;;;;;;97.72;16.20;;;;;;;;;;4895105;29;20494;-84
2022/02/17 21:29:52;;;;;;;94.65;12.80;;;;;;;;;;4891277;29;20506;-85
2022/02/17 21:32:19;;;;;;;85.95;13.27;;;;;;;;;;4873724;29;20081;-85
2022/02/17 21:34:46;;;;;;;77.80;14.07;;;;;;;;;;4891239;29;20055;-84
2022/02/17 21:37:13;;;;;;;93.88;16.05;;;;;;;;;;4876711;29;20055;-83
2022/02/17 21:39:43;;;;;;;80.82;12.43;;;;;;;;;;4892005;29;20788;-87
2022/02/17 21:42:11;;;;;;;77.43;12.02;;;;;;;;;;4894073;29;20072;-82